createdAt,value
2018-05-17T00:02:00.249Z,17.90
2018-05-17T00:04:27.102Z,17.80
2018-05-17T00:06:53.713Z,17.50
2018-05-17T00:09:20.376Z,17.60
2018-05-17T00:11:47.089Z,17.60
2018-05-17T00:14:13.668Z,17.70
2018-05-17T00:16:40.493Z,17.80
2018-05-17T00:19:07.233Z,17.70
2018-05-17T00:21:33.849Z,17.70
2018-05-17T00:24:00.507Z,17.70
2018-05-17T00:26:27.213Z,17.80
2018-05-17T00:28:54.601Z,17.80
2018-05-17T00:31:21.206Z,17.80
2018-05-17T00:33:47.919Z,17.80
2018-05-17T00:36:15.304Z,17.50
2018-05-17T00:38:41.900Z,17.50
2018-05-17T00:41:09.330Z,17.20
2018-05-17T00:43:35.932Z,17.20
2018-05-17T00:46:02.548Z,17.10
2018-05-17T00:48:30.154Z,17.30
2018-05-17T00:50:56.767Z,17.30
2018-05-17T00:53:30.464Z,17.20
2018-05-17T00:55:57.337Z,17.00
2018-05-17T00:58:23.978Z,16.90
2018-05-17T01:00:50.594Z,17.00
2018-05-17T01:03:17.352Z,16.90
2018-05-17T01:05:43.936Z,16.90
2018-05-17T01:08:11.345Z,16.70
2018-05-17T01:10:38.185Z,16.70
2018-05-17T01:13:04.910Z,16.70
2018-05-17T01:15:31.664Z,16.70
2018-05-17T01:17:58.377Z,16.80
2018-05-17T01:20:25.042Z,16.90
2018-05-17T01:22:51.783Z,16.70
2018-05-17T01:25:18.528Z,16.60
2018-05-17T01:27:45.243Z,16.80
2018-05-17T01:30:11.895Z,16.90
2018-05-17T01:32:38.608Z,16.80
2018-05-17T01:35:05.456Z,16.60
2018-05-17T01:37:44.377Z,16.60
2018-05-17T01:40:47.072Z,16.50
2018-05-17T01:43:13.824Z,16.50
2018-05-17T01:45:40.561Z,16.70
2018-05-17T01:48:07.201Z,16.60
2018-05-17T01:50:34.151Z,16.60
2018-05-17T01:53:00.740Z,16.70
2018-05-17T01:55:28.217Z,16.90
2018-05-17T01:57:54.883Z,16.90
2018-05-17T02:00:21.618Z,16.90
2018-05-17T02:02:48.264Z,16.90
2018-05-17T02:05:15.105Z,16.80
2018-05-17T02:07:41.687Z,16.60
2018-05-17T02:10:09.190Z,16.70
2018-05-17T02:12:35.796Z,16.60
2018-05-17T02:15:02.469Z,16.70
2018-05-17T02:17:29.202Z,16.70
2018-05-17T02:19:55.949Z,16.70
2018-05-17T02:22:22.723Z,16.70
2018-05-17T02:24:50.246Z,16.60
2018-05-17T02:27:16.983Z,16.50
2018-05-17T02:29:43.722Z,16.40
2018-05-17T02:32:10.463Z,16.50
2018-05-17T02:34:37.199Z,16.50
2018-05-17T02:37:03.755Z,16.30
2018-05-17T02:39:30.579Z,16.30
2018-05-17T02:41:57.304Z,16.20
2018-05-17T02:44:24.161Z,16.40
2018-05-17T02:46:50.873Z,16.40
2018-05-17T02:49:17.635Z,16.40
2018-05-17T02:51:44.479Z,16.20
2018-05-17T02:54:11.115Z,15.90
2018-05-17T02:56:37.857Z,16.00
2018-05-17T02:59:04.602Z,15.70
2018-05-17T03:01:31.334Z,15.80
2018-05-17T03:03:58.050Z,15.60
2018-05-17T03:06:24.718Z,15.60
2018-05-17T03:08:51.432Z,15.60
2018-05-17T03:11:18.064Z,15.40
2018-05-17T03:13:44.658Z,15.30
2018-05-17T03:16:12.079Z,15.50
2018-05-17T03:18:38.924Z,15.50
2018-05-17T03:21:05.558Z,15.80
2018-05-17T03:23:32.158Z,15.80
2018-05-17T03:25:59.655Z,16.10
2018-05-17T03:28:26.398Z,16.00
2018-05-17T03:30:53.030Z,16.20
2018-05-17T03:33:19.666Z,16.10
2018-05-17T03:35:46.382Z,16.00
2018-05-17T03:38:12.973Z,15.90
2018-05-17T03:40:39.688Z,15.90
2018-05-17T03:43:06.393Z,16.20
2018-05-17T03:45:33.028Z,16.20
2018-05-17T03:48:00.619Z,16.20
2018-05-17T03:50:27.255Z,16.20
2018-05-17T03:52:54.098Z,16.10
2018-05-17T03:55:20.712Z,16.00
2018-05-17T03:57:47.287Z,16.00
2018-05-17T04:00:13.882Z,16.00
2018-05-17T04:02:52.836Z,15.80
2018-05-17T04:05:31.668Z,15.80
2018-05-17T04:07:58.304Z,15.80
2018-05-17T04:10:24.929Z,15.90
2018-05-17T04:12:51.639Z,15.90
2018-05-17T04:15:18.282Z,15.90
2018-05-17T04:17:44.941Z,15.90
2018-05-17T04:20:11.579Z,15.90
2018-05-17T04:22:38.320Z,16.20
2018-05-17T04:25:04.965Z,16.20
2018-05-17T04:27:31.780Z,16.30
2018-05-17T04:29:58.410Z,16.10
2018-05-17T04:32:25.110Z,16.10
2018-05-17T04:34:51.813Z,16.10
2018-05-17T04:37:18.553Z,16.00
2018-05-17T04:39:45.121Z,16.20
2018-05-17T04:42:11.798Z,16.40
2018-05-17T04:44:38.462Z,16.50
2018-05-17T04:47:05.178Z,16.60
2018-05-17T04:49:31.840Z,16.70
2018-05-17T04:51:58.504Z,16.60
2018-05-17T04:54:25.325Z,16.80
2018-05-17T04:56:52.059Z,16.70
2018-05-17T04:59:18.637Z,16.90
2018-05-17T05:01:45.961Z,17.00
2018-05-17T05:04:12.560Z,17.00
2018-05-17T05:06:39.198Z,17.20
2018-05-17T05:09:05.760Z,17.40
2018-05-17T05:11:32.498Z,17.60
2018-05-17T05:13:59.132Z,17.70
2018-05-17T05:16:25.877Z,17.70
2018-05-17T05:18:52.611Z,17.90
2018-05-17T05:21:19.351Z,18.00
2018-05-17T05:23:46.101Z,18.20
2018-05-17T05:26:12.696Z,18.40
2018-05-17T05:28:39.342Z,18.50
2018-05-17T05:31:06.825Z,18.20
2018-05-17T05:33:33.767Z,18.20
2018-05-17T05:36:00.406Z,18.50
2018-05-17T05:38:27.044Z,18.50
2018-05-17T05:40:53.758Z,18.80
2018-05-17T05:43:20.585Z,19.00
2018-05-17T05:45:47.164Z,19.20
2018-05-17T05:48:13.900Z,19.20
2018-05-17T05:50:40.724Z,19.30
2018-05-17T05:53:07.296Z,19.40
2018-05-17T05:55:34.116Z,19.80
2018-05-17T05:58:00.958Z,19.80
2018-05-17T06:00:27.569Z,20.00
2018-05-17T06:02:54.210Z,20.10
2018-05-17T06:05:20.845Z,20.50
2018-05-17T06:07:47.612Z,20.80
2018-05-17T06:10:14.214Z,20.90
2018-05-17T06:12:40.851Z,21.00
2018-05-17T06:15:08.213Z,20.50
2018-05-17T06:17:34.850Z,20.50
2018-05-17T06:20:01.416Z,20.30
2018-05-17T06:22:28.152Z,20.70
2018-05-17T06:24:54.853Z,20.90
2018-05-17T06:27:21.458Z,20.80
2018-05-17T06:29:49.564Z,21.00
2018-05-17T06:32:16.238Z,21.00
2018-05-17T06:34:42.977Z,21.20
2018-05-17T06:37:09.612Z,21.70
2018-05-17T06:39:36.253Z,22.40
2018-05-17T06:42:02.990Z,22.70
2018-05-17T06:44:29.727Z,22.60
2018-05-17T06:46:56.365Z,22.50
2018-05-17T06:49:23.207Z,22.00
2018-05-17T06:51:49.994Z,22.30
2018-05-17T06:54:16.687Z,22.70
2018-05-17T06:56:43.544Z,22.90
2018-05-17T06:59:10.267Z,22.50
2018-05-17T07:01:36.979Z,23.00
2018-05-17T07:04:04.361Z,23.30
2018-05-17T07:06:31.005Z,23.30
2018-05-17T07:08:57.652Z,23.60
2018-05-17T07:11:24.273Z,23.10
2018-05-17T07:13:50.869Z,23.40
2018-05-17T07:16:18.207Z,22.60
2018-05-17T07:18:45.766Z,22.60
2018-05-17T07:21:12.360Z,22.60
2018-05-17T07:23:39.074Z,23.80
2018-05-17T07:26:05.741Z,23.30
2018-05-17T07:28:32.449Z,23.00
2018-05-17T07:30:59.213Z,23.50
2018-05-17T07:33:25.931Z,23.60
2018-05-17T07:35:52.513Z,23.40
2018-05-17T07:38:19.140Z,23.50
2018-05-17T07:40:45.737Z,23.00
2018-05-17T07:43:12.400Z,23.20
2018-05-17T07:45:39.123Z,24.00
2018-05-17T07:48:05.753Z,24.90
2018-05-17T07:50:32.395Z,25.30
2018-05-17T07:52:59.052Z,25.30
2018-05-17T07:55:25.650Z,24.10
2018-05-17T07:57:53.147Z,23.40
2018-05-17T08:00:20.169Z,23.40
2018-05-17T08:02:46.832Z,23.10
2018-05-17T08:05:13.406Z,23.00
2018-05-17T08:07:40.863Z,23.40
2018-05-17T08:10:08.248Z,24.40
2018-05-17T08:12:34.916Z,24.30
2018-05-17T08:15:01.571Z,24.20
2018-05-17T08:17:28.164Z,23.10
2018-05-17T08:19:54.756Z,22.60
2018-05-17T08:22:21.463Z,22.80
2018-05-17T08:24:48.177Z,22.70
2018-05-17T08:27:14.808Z,23.10
2018-05-17T08:29:41.477Z,24.00
2018-05-17T08:32:08.216Z,23.00
2018-05-17T08:34:35.059Z,22.70
2018-05-17T08:37:01.644Z,22.40
2018-05-17T08:39:29.128Z,23.10
2018-05-17T08:41:55.871Z,23.10
2018-05-17T08:44:22.608Z,23.30
2018-05-17T08:46:49.345Z,23.70
2018-05-17T08:49:15.924Z,24.00
2018-05-17T08:51:42.647Z,24.00
2018-05-17T08:54:09.386Z,23.90
2018-05-17T08:56:36.023Z,24.00
2018-05-17T08:59:02.662Z,24.00
2018-05-17T09:01:29.856Z,24.40
2018-05-17T09:03:57.339Z,25.20
2018-05-17T09:06:23.972Z,25.10
2018-05-17T09:08:50.644Z,25.40
2018-05-17T09:11:17.382Z,25.10
2018-05-17T09:13:44.060Z,25.10
2018-05-17T09:16:10.661Z,24.90
2018-05-17T09:18:37.262Z,25.00
2018-05-17T09:21:04.009Z,25.50
2018-05-17T09:23:30.572Z,25.70
2018-05-17T09:25:57.180Z,26.20
2018-05-17T09:28:23.922Z,26.10
2018-05-17T09:30:50.529Z,26.50
2018-05-17T09:33:17.911Z,25.80
2018-05-17T09:35:44.480Z,25.80
2018-05-17T09:38:11.928Z,25.60
2018-05-17T09:40:38.748Z,25.60
2018-05-17T09:43:05.340Z,25.60
2018-05-17T09:45:33.583Z,25.40
2018-05-17T09:48:00.218Z,25.40
2018-05-17T09:50:26.959Z,25.60
2018-05-17T09:52:53.598Z,25.60
2018-05-17T09:55:20.186Z,25.00
2018-05-17T09:57:47.604Z,25.90
2018-05-17T10:00:20.089Z,25.80
2018-05-17T10:02:46.903Z,25.20
2018-05-17T10:05:13.617Z,25.30
2018-05-17T10:07:40.461Z,24.50
2018-05-17T10:10:07.225Z,24.60
2018-05-17T10:12:33.829Z,24.90
2018-05-17T10:15:00.475Z,25.20
2018-05-17T10:17:27.070Z,24.40
2018-05-17T10:19:54.487Z,25.40
2018-05-17T10:22:21.097Z,25.30
2018-05-17T10:24:47.685Z,26.00
2018-05-17T10:27:14.242Z,25.70
2018-05-17T10:29:41.559Z,24.00
2018-05-17T10:32:08.286Z,23.90
2018-05-17T10:34:34.925Z,24.00
2018-05-17T10:37:01.664Z,24.10
2018-05-17T10:39:28.405Z,24.60
2018-05-17T10:41:55.032Z,25.20
2018-05-17T10:44:21.677Z,25.50
2018-05-17T10:46:48.525Z,25.30
2018-05-17T10:49:15.133Z,25.60
2018-05-17T10:51:41.799Z,25.70
2018-05-17T10:54:08.510Z,25.50
2018-05-17T10:56:35.173Z,25.60
2018-05-17T10:59:01.743Z,25.50
2018-05-17T11:01:29.883Z,25.10
2018-05-17T11:03:56.619Z,25.00
2018-05-17T11:06:23.358Z,25.10
2018-05-17T11:08:49.924Z,24.90
2018-05-17T11:11:23.460Z,24.90
2018-05-17T11:13:50.237Z,24.80
2018-05-17T11:16:16.972Z,24.20
2018-05-17T11:18:43.692Z,23.90
2018-05-17T11:21:11.066Z,24.40
2018-05-17T11:23:37.654Z,24.30
2018-05-17T11:26:05.233Z,24.30
2018-05-17T11:28:31.848Z,24.30
2018-05-17T11:30:59.256Z,24.90
2018-05-17T11:33:25.865Z,24.90
2018-05-17T11:35:52.532Z,25.20
2018-05-17T11:38:19.093Z,25.30
2018-05-17T11:40:45.701Z,25.30
2018-05-17T11:43:12.339Z,25.00
2018-05-17T11:45:38.940Z,26.50
2018-05-17T11:48:05.617Z,26.90
2018-05-17T11:50:32.348Z,27.20
2018-05-17T11:52:59.780Z,25.60
2018-05-17T11:55:26.360Z,25.60
2018-05-17T11:57:53.062Z,25.90
2018-05-17T12:00:19.625Z,26.20
2018-05-17T12:02:46.269Z,25.80
2018-05-17T12:05:12.869Z,25.60
2018-05-17T12:07:39.751Z,25.30
2018-05-17T12:10:06.473Z,25.20
2018-05-17T12:12:33.190Z,25.10
2018-05-17T12:14:59.853Z,24.40
2018-05-17T12:17:26.564Z,24.50
2018-05-17T12:19:53.231Z,25.20
2018-05-17T12:22:19.967Z,25.10
2018-05-17T12:24:46.708Z,24.50
2018-05-17T12:27:13.420Z,24.00
2018-05-17T12:29:39.993Z,24.40
2018-05-17T12:32:06.699Z,24.50
2018-05-17T12:34:33.332Z,24.00
2018-05-17T12:36:59.972Z,23.90
2018-05-17T12:39:26.620Z,23.70
2018-05-17T12:41:53.477Z,23.80
2018-05-17T12:44:20.317Z,24.20
2018-05-17T12:46:47.143Z,24.70
2018-05-17T12:49:13.729Z,24.80
2018-05-17T12:51:41.867Z,25.10
2018-05-17T12:54:08.455Z,25.20
2018-05-17T12:56:35.961Z,24.70
2018-05-17T12:59:02.701Z,24.70
2018-05-17T13:01:29.323Z,23.90
2018-05-17T13:03:56.054Z,24.00
2018-05-17T13:06:22.674Z,23.40
2018-05-17T13:08:50.146Z,23.50
2018-05-17T13:11:16.807Z,23.50
2018-05-17T13:13:43.553Z,23.30
2018-05-17T13:16:10.117Z,23.50
2018-05-17T13:18:38.284Z,23.90
2018-05-17T13:21:04.969Z,23.90
2018-05-17T13:23:31.634Z,23.20
2018-05-17T13:25:58.267Z,22.90
2018-05-17T13:28:24.858Z,23.70
2018-05-17T13:30:52.292Z,23.10
2018-05-17T13:33:19.001Z,23.10
2018-05-17T13:35:45.718Z,22.70
2018-05-17T13:38:12.352Z,22.70
2018-05-17T13:40:38.972Z,22.90
2018-05-17T13:43:06.367Z,22.90
2018-05-17T13:45:33.013Z,23.00
2018-05-17T13:47:59.646Z,22.80
2018-05-17T13:50:26.383Z,22.90
2018-05-17T13:52:53.022Z,22.90
2018-05-17T13:55:19.657Z,23.00
2018-05-17T13:57:46.269Z,23.20
2018-05-17T14:00:12.845Z,23.00
2018-05-17T14:02:39.579Z,22.90
2018-05-17T14:05:06.207Z,23.00
2018-05-17T14:07:32.955Z,23.30
2018-05-17T14:09:59.671Z,23.30
2018-05-17T14:12:26.340Z,23.00
2018-05-17T14:14:52.962Z,22.70
2018-05-17T14:17:19.572Z,23.10
2018-05-17T14:19:46.209Z,23.00
2018-05-17T14:22:12.852Z,23.30
2018-05-17T14:24:39.461Z,23.00
2018-05-17T14:27:06.821Z,22.70
2018-05-17T14:29:34.305Z,22.50
2018-05-17T14:32:00.956Z,22.50
2018-05-17T14:34:27.696Z,23.00
2018-05-17T14:36:54.475Z,22.90
2018-05-17T14:39:21.893Z,23.00
2018-05-17T14:41:48.613Z,23.00
2018-05-17T14:44:15.237Z,22.70
2018-05-17T14:46:42.008Z,22.60
2018-05-17T14:49:08.644Z,22.80
2018-05-17T14:51:35.372Z,23.10
2018-05-17T14:54:01.988Z,22.70
2018-05-17T14:56:28.642Z,22.50
2018-05-17T14:58:55.373Z,22.50
2018-05-17T15:01:21.958Z,22.40
2018-05-17T15:03:49.313Z,22.60
2018-05-17T15:06:15.907Z,22.60
2018-05-17T15:08:42.576Z,22.60
2018-05-17T15:11:12.055Z,22.50
2018-05-17T15:13:35.941Z,22.80
2018-05-17T15:16:02.784Z,22.90
2018-05-17T15:18:29.415Z,22.50
2018-05-17T15:20:56.133Z,22.70
2018-05-17T15:23:22.796Z,22.90
2018-05-17T15:25:49.639Z,22.40
2018-05-17T15:28:16.205Z,22.30
2018-05-17T15:30:42.785Z,22.80
2018-05-17T15:33:09.446Z,22.80
2018-05-17T15:35:36.085Z,22.60
2018-05-17T15:38:02.823Z,22.60
2018-05-17T15:40:29.532Z,22.30
2018-05-17T15:42:56.198Z,22.50
2018-05-17T15:45:22.939Z,22.60
2018-05-17T15:47:49.577Z,22.60
2018-05-17T15:50:16.294Z,22.80
2018-05-17T15:52:42.877Z,22.60
2018-05-17T15:55:09.590Z,22.40
2018-05-17T15:57:36.226Z,22.40
2018-05-17T16:00:03.044Z,22.40
2018-05-17T16:02:29.795Z,22.20
2018-05-17T16:04:56.549Z,22.40
2018-05-17T16:07:23.170Z,22.50
2018-05-17T16:09:49.823Z,22.10
2018-05-17T16:12:16.566Z,22.00
2018-05-17T16:14:43.213Z,22.00
2018-05-17T16:17:09.944Z,22.00
2018-05-17T16:19:36.682Z,21.80
2018-05-17T16:22:03.320Z,22.00
2018-05-17T16:24:30.059Z,21.80
2018-05-17T16:26:56.773Z,21.80
2018-05-17T16:29:23.353Z,21.90
2018-05-17T16:31:50.071Z,22.00
2018-05-17T16:34:16.667Z,22.00
2018-05-17T16:36:44.024Z,21.90
2018-05-17T16:39:10.804Z,21.80
2018-05-17T16:41:37.516Z,22.00
2018-05-17T16:44:04.081Z,22.10
2018-05-17T16:46:30.661Z,22.10
2018-05-17T16:48:58.068Z,21.70
2018-05-17T16:51:24.762Z,21.60
2018-05-17T16:53:52.161Z,21.60
2018-05-17T16:56:18.900Z,21.60
2018-05-17T16:58:45.610Z,21.60
2018-05-17T17:01:12.387Z,21.60
2018-05-17T17:03:39.020Z,21.70
2018-05-17T17:06:05.757Z,21.80
2018-05-17T17:08:32.394Z,21.90
2018-05-17T17:10:59.113Z,21.60
2018-05-17T17:13:25.726Z,21.70
2018-05-17T17:15:53.132Z,21.50
2018-05-17T17:18:19.852Z,21.50
2018-05-17T17:20:46.501Z,21.50
2018-05-17T17:23:13.243Z,21.50
2018-05-17T17:25:39.851Z,21.50
2018-05-17T17:28:06.485Z,21.40
2018-05-17T17:30:33.153Z,21.40
2018-05-17T17:32:59.997Z,21.40
2018-05-17T17:35:26.738Z,21.40
2018-05-17T17:37:53.476Z,21.30
2018-05-17T17:40:20.289Z,21.20
2018-05-17T17:42:47.064Z,21.00
2018-05-17T17:45:13.693Z,21.00
2018-05-17T17:47:40.287Z,21.10
2018-05-17T17:50:07.683Z,20.80
2018-05-17T17:52:34.424Z,20.80
2018-05-17T17:55:01.050Z,20.70
2018-05-17T17:57:27.698Z,20.60
2018-05-17T17:59:54.443Z,20.60
2018-05-17T18:02:21.179Z,20.50
2018-05-17T18:04:47.789Z,20.50
2018-05-17T18:07:14.424Z,20.40
2018-05-17T18:09:41.089Z,20.30
2018-05-17T18:12:07.805Z,20.30
2018-05-17T18:14:34.541Z,20.30
2018-05-17T18:17:02.417Z,20.30
2018-05-17T18:19:29.049Z,20.20
2018-05-17T18:21:55.628Z,20.20
2018-05-17T18:24:22.224Z,20.20
2018-05-17T18:26:48.959Z,20.20
2018-05-17T18:29:15.597Z,20.20
2018-05-17T18:31:42.257Z,20.20
2018-05-17T18:34:09.619Z,20.10
2018-05-17T18:36:36.329Z,20.10
2018-05-17T18:39:03.132Z,20.10
2018-05-17T18:41:30.550Z,20.00
2018-05-17T18:43:57.286Z,20.00
2018-05-17T18:46:24.030Z,19.90
2018-05-17T18:48:50.643Z,20.00
2018-05-17T18:51:17.303Z,20.00
2018-05-17T18:53:44.014Z,20.00
2018-05-17T18:56:10.680Z,20.10
2018-05-17T18:58:37.318Z,20.00
2018-05-17T19:01:04.059Z,20.00
2018-05-17T19:03:30.673Z,19.90
2018-05-17T19:05:57.640Z,19.70
2018-05-17T19:08:24.383Z,19.80
2018-05-17T19:10:51.117Z,19.80
2018-05-17T19:13:18.575Z,19.60
2018-05-17T19:15:45.208Z,19.60
2018-05-17T19:18:12.054Z,19.70
2018-05-17T19:20:38.689Z,19.70
2018-05-17T19:23:05.368Z,19.70
2018-05-17T19:25:32.711Z,19.70
2018-05-17T19:27:59.317Z,19.70
2018-05-17T19:30:25.949Z,19.80
2018-05-17T19:32:52.564Z,19.70
2018-05-17T19:35:19.228Z,19.70
2018-05-17T19:37:45.973Z,19.70
2018-05-17T19:40:12.605Z,19.80
2018-05-17T19:42:39.246Z,19.80
2018-05-17T19:45:05.956Z,19.80
2018-05-17T19:47:32.609Z,19.90
2018-05-17T19:49:59.165Z,19.90
2018-05-17T19:52:25.895Z,19.80
2018-05-17T19:54:52.635Z,19.70
2018-05-17T19:57:19.283Z,19.60
2018-05-17T19:59:45.985Z,19.60
2018-05-17T20:02:12.634Z,19.50
2018-05-17T20:04:39.296Z,19.50
2018-05-17T20:07:05.960Z,19.50
2018-05-17T20:09:33.457Z,19.40
2018-05-17T20:12:00.100Z,19.40
2018-05-17T20:14:26.696Z,19.50
2018-05-17T20:16:54.055Z,19.30
2018-05-17T20:19:21.463Z,19.50
2018-05-17T20:21:48.177Z,19.50
2018-05-17T20:24:14.795Z,19.50
2018-05-17T20:26:42.197Z,19.40
2018-05-17T20:29:08.825Z,19.40
2018-05-17T20:31:35.548Z,19.40
2018-05-17T20:34:02.123Z,19.40
2018-05-17T20:36:28.825Z,19.20
2018-05-17T20:38:55.404Z,19.30
2018-05-17T20:41:22.119Z,19.40
2018-05-17T20:43:48.761Z,19.40
2018-05-17T20:46:15.428Z,19.30
2018-05-17T20:48:42.240Z,19.10
2018-05-17T20:51:09.077Z,19.20
2018-05-17T20:53:35.825Z,19.20
2018-05-17T20:56:02.532Z,19.40
2018-05-17T20:58:29.158Z,19.70
2018-05-17T21:00:55.719Z,19.60
2018-05-17T21:03:22.472Z,19.70
2018-05-17T21:05:49.216Z,19.60
2018-05-17T21:08:15.952Z,19.60
2018-05-17T21:10:42.896Z,19.40
2018-05-17T21:13:09.534Z,19.20
2018-05-17T21:15:36.268Z,19.40
2018-05-17T21:18:03.122Z,19.50
2018-05-17T21:20:29.958Z,19.50
2018-05-17T21:22:56.600Z,19.50
2018-05-17T21:25:23.330Z,19.40
2018-05-17T21:27:49.968Z,19.00
2018-05-17T21:30:16.680Z,19.00
2018-05-17T21:32:43.318Z,19.00
2018-05-17T21:35:09.985Z,18.60
2018-05-17T21:37:36.620Z,18.50
2018-05-17T21:40:03.259Z,18.50
2018-05-17T21:42:29.869Z,18.40
2018-05-17T21:44:56.583Z,18.50
2018-05-17T21:47:23.103Z,18.70
2018-05-17T21:49:49.692Z,18.70
2018-05-17T21:52:16.287Z,18.90
2018-05-17T21:54:43.698Z,18.80
2018-05-17T21:57:10.289Z,18.80
2018-05-17T21:59:37.895Z,18.40
2018-05-17T22:02:04.631Z,18.40
2018-05-17T22:04:31.440Z,18.20
2018-05-17T22:06:58.215Z,18.20
2018-05-17T22:09:24.951Z,18.40
2018-05-17T22:11:51.692Z,18.40
2018-05-17T22:14:18.446Z,18.30
2018-05-17T22:16:45.273Z,18.30
2018-05-17T22:19:12.040Z,18.40
2018-05-17T22:21:38.858Z,18.50
2018-05-17T22:24:05.569Z,18.40
2018-05-17T22:26:32.134Z,18.50
2018-05-17T22:28:58.845Z,18.20
2018-05-17T22:31:25.481Z,18.20
2018-05-17T22:33:52.248Z,18.00
2018-05-17T22:36:19.090Z,18.10
2018-05-17T22:38:45.827Z,18.20
2018-05-17T22:41:12.466Z,18.20
2018-05-17T22:43:39.101Z,18.40
2018-05-17T22:46:05.742Z,18.50
2018-05-17T22:48:32.485Z,18.40
2018-05-17T22:50:59.125Z,18.50
2018-05-17T22:53:25.835Z,18.70
2018-05-17T22:55:52.429Z,18.70
2018-05-17T22:58:29.245Z,18.70
2018-05-17T23:00:55.882Z,18.70
2018-05-17T23:03:22.541Z,18.60
2018-05-17T23:05:49.200Z,18.50
2018-05-17T23:08:15.801Z,18.50
2018-05-17T23:10:42.542Z,18.40
2018-05-17T23:13:09.194Z,18.40
2018-05-17T23:15:35.834Z,18.40
2018-05-17T23:18:02.476Z,18.30
2018-05-17T23:20:29.076Z,18.30
2018-05-17T23:22:55.951Z,18.40
2018-05-17T23:25:22.690Z,18.60
2018-05-17T23:27:49.327Z,18.50
2018-05-17T23:30:15.960Z,18.40
2018-05-17T23:32:42.573Z,18.50
2018-05-17T23:35:09.235Z,18.40
2018-05-17T23:37:35.851Z,18.30
2018-05-17T23:40:14.570Z,18.60
2018-05-17T23:42:41.161Z,18.60
2018-05-17T23:45:07.867Z,18.80
2018-05-17T23:47:34.505Z,18.90
2018-05-17T23:50:01.221Z,19.10
2018-05-17T23:52:27.888Z,19.10
2018-05-17T23:54:54.481Z,19.20
2018-05-17T23:57:21.157Z,19.20
2018-05-17T23:59:47.875Z,19.10
